sensor_id;sensor_type;location;lat;lon;timestamp;P1;durP1;ratioP1;P2;durP2;ratioP2
5026;SDS011;2532;52.480;13.354;2023-04-01T04:08:32;6.33;;;3.43;;
5026;SDS011;2532;52.480;13.354;2023-04-01T04:11:21;10.73;;;4.00;;
5026;SDS011;2532;52.480;13.354;2023-04-01T04:14:05;6.17;;;3.80;;
5026;SDS011;2532;52.480;13.354;2023-04-01T04:16:36;6.37;;;3.37;;
5026;SDS011;2532;52.480;13.354;2023-04-01T04:19:04;6.93;;;3.40;;
5026;SDS011;2532;52.480;13.354;2023-04-01T04:21:32;5.60;;;3.67;;
5026;SDS011;2532;52.480;13.354;2023-04-01T04:23:59;4.67;;;3.10;;
5026;SDS011;2532;52.480;13.354;2023-04-01T04:26:27;5.73;;;3.50;;
5026;SDS011;2532;52.480;13.354;2023-04-01T04:28:54;6.53;;;3.87;;
5026;SDS011;2532;52.480;13.354;2023-04-01T04:31:22;5.70;;;3.63;;
5026;SDS011;2532;52.480;13.354;2023-04-01T04:33:50;5.57;;;3.40;;
5026;SDS011;2532;52.480;13.354;2023-04-01T04:36:18;7.30;;;4.30;;
5026;SDS011;2532;52.480;13.354;2023-04-01T04:38:47;7.53;;;3.17;;
5026;SDS011;2532;52.480;13.354;2023-04-01T04:41:15;6.53;;;3.37;;
5026;SDS011;2532;52.480;13.354;2023-04-01T04:43:48;8.30;;;3.50;;
5026;SDS011;2532;52.480;13.354;2023-04-01T04:46:16;5.83;;;3.17;;
5026;SDS011;2532;52.480;13.354;2023-04-01T04:48:43;6.70;;;3.47;;
5026;SDS011;2532;52.480;13.354;2023-04-01T04:51:12;6.43;;;3.37;;
5026;SDS011;2532;52.480;13.354;2023-04-01T04:53:40;3.97;;;3.57;;
5026;SDS011;2532;52.480;13.354;2023-04-01T04:56:09;7.30;;;3.43;;
5026;SDS011;2532;52.480;13.354;2023-04-01T04:58:36;8.07;;;3.20;;
5026;SDS011;2532;52.480;13.354;2023-04-01T05:01:07;8.30;;;3.17;;
5026;SDS011;2532;52.480;13.354;2023-04-01T05:03:35;7.67;;;3.77;;
5026;SDS011;2532;52.480;13.354;2023-04-01T05:06:03;10.97;;;3.90;;
5026;SDS011;2532;52.480;13.354;2023-04-01T05:08:30;9.20;;;3.10;;
5026;SDS011;2532;52.480;13.354;2023-04-01T05:10:59;6.57;;;3.40;;
5026;SDS011;2532;52.480;13.354;2023-04-01T05:13:28;5.33;;;3.13;;
5026;SDS011;2532;52.480;13.354;2023-04-01T05:15:55;4.07;;;3.30;;
5026;SDS011;2532;52.480;13.354;2023-04-01T05:18:22;7.90;;;3.27;;
5026;SDS011;2532;52.480;13.354;2023-04-01T05:20:50;4.27;;;3.53;;
5026;SDS011;2532;52.480;13.354;2023-04-01T05:23:18;5.77;;;3.40;;
5026;SDS011;2532;52.480;13.354;2023-04-01T05:25:46;6.50;;;3.17;;
5026;SDS011;2532;52.480;13.354;2023-04-01T05:28:14;7.90;;;3.50;;
5026;SDS011;2532;52.480;13.354;2023-04-01T05:30:42;5.60;;;3.33;;
5026;SDS011;2532;52.480;13.354;2023-04-01T05:33:10;7.30;;;4.30;;
5026;SDS011;2532;52.480;13.354;2023-04-01T05:35:38;8.60;;;3.77;;
5026;SDS011;2532;52.480;13.354;2023-04-01T05:38:06;6.20;;;3.90;;
5026;SDS011;2532;52.480;13.354;2023-04-01T05:40:34;9.50;;;4.47;;
5026;SDS011;2532;52.480;13.354;2023-04-01T05:43:01;8.00;;;4.07;;
5026;SDS011;2532;52.480;13.354;2023-04-01T05:45:28;8.20;;;4.57;;
5026;SDS011;2532;52.480;13.354;2023-04-01T05:47:56;5.03;;;3.60;;
5026;SDS011;2532;52.480;13.354;2023-04-01T05:50:23;8.90;;;4.93;;
5026;SDS011;2532;52.480;13.354;2023-04-01T05:52:50;5.37;;;4.13;;
5026;SDS011;2532;52.480;13.354;2023-04-01T05:55:17;6.57;;;3.63;;
5026;SDS011;2532;52.480;13.354;2023-04-01T05:57:44;8.93;;;3.83;;
5026;SDS011;2532;52.480;13.354;2023-04-01T06:00:13;10.17;;;4.40;;
5026;SDS011;2532;52.480;13.354;2023-04-01T06:02:41;13.97;;;4.10;;
5026;SDS011;2532;52.480;13.354;2023-04-01T06:05:13;6.13;;;3.77;;
5026;SDS011;2532;52.480;13.354;2023-04-01T06:07:43;8.20;;;4.10;;
5026;SDS011;2532;52.480;13.354;2023-04-01T06:10:14;6.40;;;5.27;;
5026;SDS011;2532;52.480;13.354;2023-04-01T06:12:48;10.50;;;4.00;;
5026;SDS011;2532;52.480;13.354;2023-04-01T06:15:22;10.23;;;5.30;;
5026;SDS011;2532;52.480;13.354;2023-04-01T06:21:05;10.83;;;3.63;;
5026;SDS011;2532;52.480;13.354;2023-04-01T06:23:42;8.27;;;3.83;;
5026;SDS011;2532;52.480;13.354;2023-04-01T06:26:24;8.77;;;4.20;;
5026;SDS011;2532;52.480;13.354;2023-04-01T06:28:59;5.17;;;4.13;;
5026;SDS011;2532;52.480;13.354;2023-04-01T06:31:42;5.80;;;4.70;;
5026;SDS011;2532;52.480;13.354;2023-04-01T06:37:36;15.77;;;4.90;;
5026;SDS011;2532;52.480;13.354;2023-04-01T06:40:28;9.30;;;4.50;;
5026;SDS011;2532;52.480;13.354;2023-04-01T06:43:08;13.80;;;4.73;;
5026;SDS011;2532;52.480;13.354;2023-04-01T06:45:44;10.87;;;4.47;;
5026;SDS011;2532;52.480;13.354;2023-04-01T06:48:23;7.47;;;4.27;;
5026;SDS011;2532;52.480;13.354;2023-04-01T06:51:12;6.50;;;4.40;;
5026;SDS011;2532;52.480;13.354;2023-04-01T06:53:49;7.50;;;4.40;;
5026;SDS011;2532;52.480;13.354;2023-04-01T06:56:21;8.67;;;4.87;;
5026;SDS011;2532;52.480;13.354;2023-04-01T06:58:52;5.30;;;4.33;;
5026;SDS011;2532;52.480;13.354;2023-04-01T07:01:23;15.20;;;5.10;;
5026;SDS011;2532;52.480;13.354;2023-04-01T07:03:55;6.97;;;4.30;;
5026;SDS011;2532;52.480;13.354;2023-04-01T07:06:27;9.07;;;4.87;;
5026;SDS011;2532;52.480;13.354;2023-04-01T07:08:59;10.57;;;4.33;;
5026;SDS011;2532;52.480;13.354;2023-04-01T07:11:31;6.13;;;4.00;;
5026;SDS011;2532;52.480;13.354;2023-04-01T07:14:01;6.00;;;3.67;;
5026;SDS011;2532;52.480;13.354;2023-04-01T07:16:32;6.70;;;3.77;;
5026;SDS011;2532;52.480;13.354;2023-04-01T07:19:05;6.90;;;4.37;;
5026;SDS011;2532;52.480;13.354;2023-04-01T07:21:37;4.60;;;3.73;;
5026;SDS011;2532;52.480;13.354;2023-04-01T07:24:11;5.63;;;4.07;;
5026;SDS011;2532;52.480;13.354;2023-04-01T07:26:43;6.73;;;3.90;;
5026;SDS011;2532;52.480;13.354;2023-04-01T07:29:11;7.83;;;4.10;;
5026;SDS011;2532;52.480;13.354;2023-04-01T07:31:44;7.13;;;4.03;;
5026;SDS011;2532;52.480;13.354;2023-04-01T07:34:23;7.20;;;3.77;;
5026;SDS011;2532;52.480;13.354;2023-04-01T07:36:54;6.07;;;3.77;;
5026;SDS011;2532;52.480;13.354;2023-04-01T07:39:30;5.23;;;3.83;;
5026;SDS011;2532;52.480;13.354;2023-04-01T07:42:08;3.97;;;3.43;;
5026;SDS011;2532;52.480;13.354;2023-04-01T07:44:44;6.20;;;4.30;;
5026;SDS011;2532;52.480;13.354;2023-04-01T07:47:24;4.30;;;3.30;;
5026;SDS011;2532;52.480;13.354;2023-04-01T07:50:02;7.03;;;3.57;;
5026;SDS011;2532;52.480;13.354;2023-04-01T07:52:39;5.03;;;3.13;;
5026;SDS011;2532;52.480;13.354;2023-04-01T07:55:15;4.70;;;3.37;;
5026;SDS011;2532;52.480;13.354;2023-04-01T07:57:49;4.03;;;3.20;;
5026;SDS011;2532;52.480;13.354;2023-04-01T08:00:29;4.20;;;3.20;;
5026;SDS011;2532;52.480;13.354;2023-04-01T08:03:11;6.37;;;3.30;;
5026;SDS011;2532;52.480;13.354;2023-04-01T08:05:49;6.60;;;3.03;;
5026;SDS011;2532;52.480;13.354;2023-04-01T08:08:24;5.23;;;3.00;;
5026;SDS011;2532;52.480;13.354;2023-04-01T08:11:00;5.70;;;3.00;;
5026;SDS011;2532;52.480;13.354;2023-04-01T08:13:35;6.33;;;3.33;;
5026;SDS011;2532;52.480;13.354;2023-04-01T08:16:09;6.33;;;3.83;;
5026;SDS011;2532;52.480;13.354;2023-04-01T08:18:46;6.37;;;3.07;;
5026;SDS011;2532;52.480;13.354;2023-04-01T08:21:20;3.70;;;2.70;;
5026;SDS011;2532;52.480;13.354;2023-04-01T08:23:51;4.23;;;3.20;;
5026;SDS011;2532;52.480;13.354;2023-04-01T08:26:26;14.90;;;3.70;;
5026;SDS011;2532;52.480;13.354;2023-04-01T08:29:02;5.43;;;3.30;;
5026;SDS011;2532;52.480;13.354;2023-04-01T08:31:35;12.47;;;4.07;;
5026;SDS011;2532;52.480;13.354;2023-04-01T08:34:08;5.33;;;3.30;;
5026;SDS011;2532;52.480;13.354;2023-04-01T08:36:43;7.47;;;3.20;;
5026;SDS011;2532;52.480;13.354;2023-04-01T08:39:15;6.83;;;3.93;;
5026;SDS011;2532;52.480;13.354;2023-04-01T08:41:59;5.50;;;3.33;;
5026;SDS011;2532;52.480;13.354;2023-04-01T08:44:56;6.77;;;3.00;;
5026;SDS011;2532;52.480;13.354;2023-04-01T08:47:50;5.20;;;2.77;;
5026;SDS011;2532;52.480;13.354;2023-04-01T08:50:36;4.10;;;3.23;;
5026;SDS011;2532;52.480;13.354;2023-04-01T08:53:21;3.83;;;3.47;;
5026;SDS011;2532;52.480;13.354;2023-04-01T08:56:06;4.53;;;3.30;;
5026;SDS011;2532;52.480;13.354;2023-04-01T08:58:47;4.30;;;3.50;;
5026;SDS011;2532;52.480;13.354;2023-04-01T09:01:26;4.43;;;3.60;;
5026;SDS011;2532;52.480;13.354;2023-04-01T09:04:10;5.27;;;4.40;;
5026;SDS011;2532;52.480;13.354;2023-04-01T09:06:56;6.60;;;5.17;;
5026;SDS011;2532;52.480;13.354;2023-04-01T09:15:40;6.97;;;5.40;;
5026;SDS011;2532;52.480;13.354;2023-04-01T09:24:49;13.40;;;8.67;;
5026;SDS011;2532;52.480;13.354;2023-04-01T09:27:36;9.50;;;7.60;;
5026;SDS011;2532;52.480;13.354;2023-04-01T09:30:19;9.70;;;7.50;;
5026;SDS011;2532;52.480;13.354;2023-04-01T09:36:15;9.80;;;7.80;;
5026;SDS011;2532;52.480;13.354;2023-04-01T09:38:55;11.53;;;8.13;;
5026;SDS011;2532;52.480;13.354;2023-04-01T09:41:30;10.90;;;8.70;;
5026;SDS011;2532;52.480;13.354;2023-04-01T09:44:01;12.80;;;9.30;;
5026;SDS011;2532;52.480;13.354;2023-04-01T09:46:51;12.60;;;8.87;;
5026;SDS011;2532;52.480;13.354;2023-04-01T09:49:38;20.57;;;13.13;;
5026;SDS011;2532;52.480;13.354;2023-04-01T09:52:25;17.40;;;11.50;;
5026;SDS011;2532;52.480;13.354;2023-04-01T09:55:06;11.60;;;9.07;;
5026;SDS011;2532;52.480;13.354;2023-04-01T09:58:02;12.03;;;9.17;;
5026;SDS011;2532;52.480;13.354;2023-04-01T10:00:55;15.47;;;10.80;;
5026;SDS011;2532;52.480;13.354;2023-04-01T10:04:10;13.47;;;10.40;;
5026;SDS011;2532;52.480;13.354;2023-04-01T10:13:11;26.03;;;13.40;;
5026;SDS011;2532;52.480;13.354;2023-04-01T10:16:19;21.50;;;14.20;;
5026;SDS011;2532;52.480;13.354;2023-04-01T10:19:14;13.90;;;10.27;;
5026;SDS011;2532;52.480;13.354;2023-04-01T10:22:32;15.63;;;11.50;;
5026;SDS011;2532;52.480;13.354;2023-04-01T10:28:37;17.23;;;12.53;;
5026;SDS011;2532;52.480;13.354;2023-04-01T10:31:35;15.70;;;12.07;;
5026;SDS011;2532;52.480;13.354;2023-04-01T10:34:30;13.77;;;12.03;;
5026;SDS011;2532;52.480;13.354;2023-04-01T10:37:17;13.30;;;11.57;;
5026;SDS011;2532;52.480;13.354;2023-04-01T10:49:28;12.13;;;10.00;;
5026;SDS011;2532;52.480;13.354;2023-04-01T10:55:27;11.70;;;10.40;;
5026;SDS011;2532;52.480;13.354;2023-04-01T10:58:22;16.40;;;11.90;;
5026;SDS011;2532;52.480;13.354;2023-04-01T11:01:22;8.90;;;8.00;;
5026;SDS011;2532;52.480;13.354;2023-04-01T11:04:23;10.50;;;9.40;;
5026;SDS011;2532;52.480;13.354;2023-04-01T11:10:35;10.43;;;9.30;;
5026;SDS011;2532;52.480;13.354;2023-04-01T11:23:10;12.10;;;10.47;;
5026;SDS011;2532;52.480;13.354;2023-04-01T11:26:02;13.27;;;9.70;;
5026;SDS011;2532;52.480;13.354;2023-04-01T11:31:37;10.03;;;8.30;;
5026;SDS011;2532;52.480;13.354;2023-04-01T11:34:24;9.17;;;8.20;;
5026;SDS011;2532;52.480;13.354;2023-04-01T11:37:08;10.53;;;9.13;;
5026;SDS011;2532;52.480;13.354;2023-04-01T11:39:54;9.63;;;8.63;;
5026;SDS011;2532;52.480;13.354;2023-04-01T11:42:34;9.37;;;8.47;;
5026;SDS011;2532;52.480;13.354;2023-04-01T11:45:21;12.00;;;9.83;;
5026;SDS011;2532;52.480;13.354;2023-04-01T11:48:03;9.17;;;8.17;;
5026;SDS011;2532;52.480;13.354;2023-04-01T11:51:04;7.83;;;7.03;;
5026;SDS011;2532;52.480;13.354;2023-04-01T11:53:46;6.73;;;6.00;;
5026;SDS011;2532;52.480;13.354;2023-04-01T11:56:26;7.33;;;6.13;;
5026;SDS011;2532;52.480;13.354;2023-04-01T11:59:21;6.10;;;5.50;;
5026;SDS011;2532;52.480;13.354;2023-04-01T12:02:10;8.33;;;6.53;;
5026;SDS011;2532;52.480;13.354;2023-04-01T12:04:46;6.43;;;5.77;;
5026;SDS011;2532;52.480;13.354;2023-04-01T12:07:41;6.20;;;5.53;;
5026;SDS011;2532;52.480;13.354;2023-04-01T12:10:21;6.30;;;5.40;;
5026;SDS011;2532;52.480;13.354;2023-04-01T12:12:58;7.80;;;5.70;;
5026;SDS011;2532;52.480;13.354;2023-04-01T12:15:34;7.53;;;5.67;;
5026;SDS011;2532;52.480;13.354;2023-04-01T12:18:12;7.37;;;6.30;;
5026;SDS011;2532;52.480;13.354;2023-04-01T12:20:47;7.23;;;5.60;;
5026;SDS011;2532;52.480;13.354;2023-04-01T12:23:29;10.40;;;7.93;;
5026;SDS011;2532;52.480;13.354;2023-04-01T12:29:07;10.00;;;8.00;;
5026;SDS011;2532;52.480;13.354;2023-04-01T12:31:42;8.60;;;7.20;;
5026;SDS011;2532;52.480;13.354;2023-04-01T12:34:39;7.90;;;7.10;;
5026;SDS011;2532;52.480;13.354;2023-04-01T12:37:26;10.23;;;7.10;;
5026;SDS011;2532;52.480;13.354;2023-04-01T12:40:20;11.40;;;9.20;;
5026;SDS011;2532;52.480;13.354;2023-04-01T12:43:04;10.60;;;8.23;;
5026;SDS011;2532;52.480;13.354;2023-04-01T12:45:42;9.00;;;6.80;;
5026;SDS011;2532;52.480;13.354;2023-04-01T12:48:24;7.80;;;7.00;;
5026;SDS011;2532;52.480;13.354;2023-04-01T12:51:23;8.20;;;7.20;;
5026;SDS011;2532;52.480;13.354;2023-04-01T12:57:05;11.03;;;9.47;;
5026;SDS011;2532;52.480;13.354;2023-04-01T12:59:46;10.57;;;9.03;;
5026;SDS011;2532;52.480;13.354;2023-04-01T13:02:37;9.33;;;8.30;;
5026;SDS011;2532;52.480;13.354;2023-04-01T13:05:24;11.53;;;8.47;;
5026;SDS011;2532;52.480;13.354;2023-04-01T13:08:12;11.30;;;8.47;;
5026;SDS011;2532;52.480;13.354;2023-04-01T13:13:48;11.63;;;8.43;;
5026;SDS011;2532;52.480;13.354;2023-04-01T13:16:36;9.37;;;8.17;;
5026;SDS011;2532;52.480;13.354;2023-04-01T13:19:09;12.53;;;8.60;;
5026;SDS011;2532;52.480;13.354;2023-04-01T13:21:49;16.73;;;12.17;;
5026;SDS011;2532;52.480;13.354;2023-04-01T13:24:24;15.57;;;12.83;;
5026;SDS011;2532;52.480;13.354;2023-04-01T13:27:05;16.90;;;13.17;;
5026;SDS011;2532;52.480;13.354;2023-04-01T13:29:40;16.00;;;13.07;;
5026;SDS011;2532;52.480;13.354;2023-04-01T13:32:22;14.47;;;12.20;;
5026;SDS011;2532;52.480;13.354;2023-04-01T13:34:59;15.00;;;11.97;;
5026;SDS011;2532;52.480;13.354;2023-04-01T13:37:44;13.80;;;11.43;;
5026;SDS011;2532;52.480;13.354;2023-04-01T13:43:10;13.23;;;11.07;;
5026;SDS011;2532;52.480;13.354;2023-04-01T13:45:50;14.10;;;10.37;;
5026;SDS011;2532;52.480;13.354;2023-04-01T13:51:30;13.63;;;10.83;;
5026;SDS011;2532;52.480;13.354;2023-04-01T13:54:22;14.80;;;10.27;;
5026;SDS011;2532;52.480;13.354;2023-04-01T13:57:15;14.90;;;11.33;;
5026;SDS011;2532;52.480;13.354;2023-04-01T13:59:59;11.60;;;9.40;;
5026;SDS011;2532;52.480;13.354;2023-04-01T14:02:38;13.80;;;10.47;;
5026;SDS011;2532;52.480;13.354;2023-04-01T14:05:34;12.30;;;11.00;;
5026;SDS011;2532;52.480;13.354;2023-04-01T14:08:15;14.13;;;12.20;;
5026;SDS011;2532;52.480;13.354;2023-04-01T14:10:55;11.43;;;9.60;;
5026;SDS011;2532;52.480;13.354;2023-04-01T14:13:34;11.23;;;9.67;;
5026;SDS011;2532;52.480;13.354;2023-04-01T14:16:14;14.77;;;11.40;;
5026;SDS011;2532;52.480;13.354;2023-04-01T14:19:06;15.83;;;9.40;;
5026;SDS011;2532;52.480;13.354;2023-04-01T14:21:42;12.43;;;10.00;;
5026;SDS011;2532;52.480;13.354;2023-04-01T14:27:27;13.00;;;10.70;;
5026;SDS011;2532;52.480;13.354;2023-04-01T14:30:15;10.30;;;9.27;;
5026;SDS011;2532;52.480;13.354;2023-04-01T14:32:56;11.23;;;9.47;;
5026;SDS011;2532;52.480;13.354;2023-04-01T14:35:37;11.17;;;9.43;;
5026;SDS011;2532;52.480;13.354;2023-04-01T14:38:22;12.17;;;9.40;;
5026;SDS011;2532;52.480;13.354;2023-04-01T14:41:06;12.40;;;10.10;;
5026;SDS011;2532;52.480;13.354;2023-04-01T14:46:58;12.30;;;8.80;;
5026;SDS011;2532;52.480;13.354;2023-04-01T14:49:40;13.77;;;11.83;;
5026;SDS011;2532;52.480;13.354;2023-04-01T14:52:10;11.60;;;9.23;;
5026;SDS011;2532;52.480;13.354;2023-04-01T14:54:44;14.03;;;11.00;;
5026;SDS011;2532;52.480;13.354;2023-04-01T14:57:13;10.10;;;8.93;;
5026;SDS011;2532;52.480;13.354;2023-04-01T14:59:45;9.83;;;8.00;;
5026;SDS011;2532;52.480;13.354;2023-04-01T15:05:15;11.17;;;9.23;;
5026;SDS011;2532;52.480;13.354;2023-04-01T15:10:53;10.03;;;8.97;;
5026;SDS011;2532;52.480;13.354;2023-04-01T15:13:31;12.07;;;9.00;;
5026;SDS011;2532;52.480;13.354;2023-04-01T15:16:11;12.03;;;8.57;;
5026;SDS011;2532;52.480;13.354;2023-04-01T15:18:49;12.00;;;9.30;;
5026;SDS011;2532;52.480;13.354;2023-04-01T15:21:37;13.33;;;9.80;;
5026;SDS011;2532;52.480;13.354;2023-04-01T15:24:16;10.10;;;8.90;;
5026;SDS011;2532;52.480;13.354;2023-04-01T15:26:57;10.83;;;9.60;;
5026;SDS011;2532;52.480;13.354;2023-04-01T15:32:31;12.13;;;9.30;;
5026;SDS011;2532;52.480;13.354;2023-04-01T15:35:14;11.43;;;9.07;;
5026;SDS011;2532;52.480;13.354;2023-04-01T15:37:51;12.17;;;8.80;;
5026;SDS011;2532;52.480;13.354;2023-04-01T15:40:22;12.43;;;9.20;;
5026;SDS011;2532;52.480;13.354;2023-04-01T15:42:59;12.50;;;9.93;;
5026;SDS011;2532;52.480;13.354;2023-04-01T15:45:39;11.03;;;8.30;;
5026;SDS011;2532;52.480;13.354;2023-04-01T15:48:17;10.30;;;8.80;;
5026;SDS011;2532;52.480;13.354;2023-04-01T15:50:58;8.77;;;7.63;;
5026;SDS011;2532;52.480;13.354;2023-04-01T15:53:37;11.00;;;8.40;;
5026;SDS011;2532;52.480;13.354;2023-04-01T15:56:26;7.90;;;6.67;;
5026;SDS011;2532;52.480;13.354;2023-04-01T15:59:09;10.27;;;7.90;;
5026;SDS011;2532;52.480;13.354;2023-04-01T16:01:49;8.37;;;7.27;;
5026;SDS011;2532;52.480;13.354;2023-04-01T16:04:36;8.07;;;6.83;;
5026;SDS011;2532;52.480;13.354;2023-04-01T16:07:17;10.23;;;6.43;;
5026;SDS011;2532;52.480;13.354;2023-04-01T16:10:03;9.50;;;7.03;;
5026;SDS011;2532;52.480;13.354;2023-04-01T16:12:46;11.20;;;8.50;;
5026;SDS011;2532;52.480;13.354;2023-04-01T16:15:26;10.67;;;9.40;;
5026;SDS011;2532;52.480;13.354;2023-04-01T16:18:09;11.63;;;9.17;;
5026;SDS011;2532;52.480;13.354;2023-04-01T16:20:49;10.00;;;8.27;;
5026;SDS011;2532;52.480;13.354;2023-04-01T16:23:21;11.47;;;7.53;;
5026;SDS011;2532;52.480;13.354;2023-04-01T16:25:53;8.67;;;7.77;;
5026;SDS011;2532;52.480;13.354;2023-04-01T16:28:30;9.73;;;8.53;;
5026;SDS011;2532;52.480;13.354;2023-04-01T16:31:03;9.07;;;7.10;;
5026;SDS011;2532;52.480;13.354;2023-04-01T16:33:39;10.67;;;7.63;;
5026;SDS011;2532;52.480;13.354;2023-04-01T16:36:17;8.93;;;7.97;;
5026;SDS011;2532;52.480;13.354;2023-04-01T16:38:52;9.90;;;7.70;;
5026;SDS011;2532;52.480;13.354;2023-04-01T16:41:28;9.77;;;7.27;;
5026;SDS011;2532;52.480;13.354;2023-04-01T16:43:59;9.63;;;7.73;;
5026;SDS011;2532;52.480;13.354;2023-04-01T16:46:41;8.50;;;7.40;;
5026;SDS011;2532;52.480;13.354;2023-04-01T16:49:17;9.70;;;8.20;;
5026;SDS011;2532;52.480;13.354;2023-04-01T16:51:57;9.00;;;7.30;;
5026;SDS011;2532;52.480;13.354;2023-04-01T16:54:39;10.43;;;7.30;;
5026;SDS011;2532;52.480;13.354;2023-04-01T16:57:14;8.13;;;7.20;;
5026;SDS011;2532;52.480;13.354;2023-04-01T16:59:56;9.27;;;7.30;;
5026;SDS011;2532;52.480;13.354;2023-04-01T17:02:31;8.50;;;7.67;;
5026;SDS011;2532;52.480;13.354;2023-04-01T17:05:04;7.93;;;7.13;;
5026;SDS011;2532;52.480;13.354;2023-04-01T17:07:43;9.50;;;6.83;;
5026;SDS011;2532;52.480;13.354;2023-04-01T17:15:56;9.90;;;6.90;;
5026;SDS011;2532;52.480;13.354;2023-04-01T17:18:34;7.60;;;6.10;;
5026;SDS011;2532;52.480;13.354;2023-04-01T17:21:13;9.13;;;7.50;;
5026;SDS011;2532;52.480;13.354;2023-04-01T17:23:45;9.47;;;6.87;;
5026;SDS011;2532;52.480;13.354;2023-04-01T17:26:23;10.03;;;7.90;;
5026;SDS011;2532;52.480;13.354;2023-04-01T17:28:58;10.37;;;7.30;;
5026;SDS011;2532;52.480;13.354;2023-04-01T17:31:37;9.00;;;7.97;;
5026;SDS011;2532;52.480;13.354;2023-04-01T17:34:16;16.67;;;9.90;;
5026;SDS011;2532;52.480;13.354;2023-04-01T17:36:56;10.37;;;8.00;;
5026;SDS011;2532;52.480;13.354;2023-04-01T17:39:50;9.47;;;7.60;;
5026;SDS011;2532;52.480;13.354;2023-04-01T17:42:27;10.07;;;7.40;;
5026;SDS011;2532;52.480;13.354;2023-04-01T17:45:07;11.03;;;8.60;;
5026;SDS011;2532;52.480;13.354;2023-04-01T17:47:47;13.30;;;8.20;;
5026;SDS011;2532;52.480;13.354;2023-04-01T17:50:30;11.13;;;8.27;;
5026;SDS011;2532;52.480;13.354;2023-04-01T17:53:19;13.47;;;8.83;;
5026;SDS011;2532;52.480;13.354;2023-04-01T17:55:59;10.40;;;8.13;;
5026;SDS011;2532;52.480;13.354;2023-04-01T17:58:40;7.50;;;5.50;;
5026;SDS011;2532;52.480;13.354;2023-04-01T18:01:25;12.07;;;7.57;;
5026;SDS011;2532;52.480;13.354;2023-04-01T18:07:12;9.77;;;7.83;;
5026;SDS011;2532;52.480;13.354;2023-04-01T18:10:13;7.80;;;6.67;;
5026;SDS011;2532;52.480;13.354;2023-04-01T18:13:00;10.57;;;7.90;;
5026;SDS011;2532;52.480;13.354;2023-04-01T18:15:43;14.30;;;8.27;;
5026;SDS011;2532;52.480;13.354;2023-04-01T18:18:26;10.63;;;8.57;;
5026;SDS011;2532;52.480;13.354;2023-04-01T18:21:05;10.30;;;6.93;;
5026;SDS011;2532;52.480;13.354;2023-04-01T18:23:41;9.03;;;7.17;;
5026;SDS011;2532;52.480;13.354;2023-04-01T18:26:13;10.90;;;7.10;;
5026;SDS011;2532;52.480;13.354;2023-04-01T18:28:49;9.30;;;7.57;;
5026;SDS011;2532;52.480;13.354;2023-04-01T18:31:21;9.63;;;6.87;;
5026;SDS011;2532;52.480;13.354;2023-04-01T18:33:54;10.20;;;7.33;;
5026;SDS011;2532;52.480;13.354;2023-04-01T18:36:33;8.40;;;6.07;;
5026;SDS011;2532;52.480;13.354;2023-04-01T18:39:10;12.63;;;7.10;;
5026;SDS011;2532;52.480;13.354;2023-04-01T18:41:47;9.30;;;7.33;;
5026;SDS011;2532;52.480;13.354;2023-04-01T18:44:26;11.90;;;7.57;;
5026;SDS011;2532;52.480;13.354;2023-04-01T18:46:59;12.60;;;7.57;;
5026;SDS011;2532;52.480;13.354;2023-04-01T18:49:39;8.17;;;7.03;;
5026;SDS011;2532;52.480;13.354;2023-04-01T18:52:16;9.47;;;6.40;;
5026;SDS011;2532;52.480;13.354;2023-04-01T18:54:50;14.33;;;8.70;;
5026;SDS011;2532;52.480;13.354;2023-04-01T18:57:38;7.57;;;6.40;;
5026;SDS011;2532;52.480;13.354;2023-04-01T19:00:13;9.60;;;7.03;;
5026;SDS011;2532;52.480;13.354;2023-04-01T19:02:48;8.67;;;6.77;;
5026;SDS011;2532;52.480;13.354;2023-04-01T19:05:26;9.40;;;7.23;;
5026;SDS011;2532;52.480;13.354;2023-04-01T19:08:13;11.40;;;7.40;;
5026;SDS011;2532;52.480;13.354;2023-04-01T19:10:48;10.13;;;7.47;;
5026;SDS011;2532;52.480;13.354;2023-04-01T19:13:24;11.03;;;7.00;;
5026;SDS011;2532;52.480;13.354;2023-04-01T19:15:59;11.03;;;8.43;;
5026;SDS011;2532;52.480;13.354;2023-04-01T19:21:38;11.43;;;7.90;;
5026;SDS011;2532;52.480;13.354;2023-04-01T19:24:15;13.40;;;7.30;;
5026;SDS011;2532;52.480;13.354;2023-04-01T19:27:06;10.20;;;8.10;;
5026;SDS011;2532;52.480;13.354;2023-04-01T19:29:45;9.87;;;7.30;;
5026;SDS011;2532;52.480;13.354;2023-04-01T19:32:25;11.07;;;8.60;;
5026;SDS011;2532;52.480;13.354;2023-04-01T19:35:08;13.57;;;8.47;;
5026;SDS011;2532;52.480;13.354;2023-04-01T19:37:45;12.07;;;9.03;;
5026;SDS011;2532;52.480;13.354;2023-04-01T19:40:20;12.40;;;7.57;;
5026;SDS011;2532;52.480;13.354;2023-04-01T19:43:01;12.83;;;9.10;;
5026;SDS011;2532;52.480;13.354;2023-04-01T19:45:38;8.70;;;6.07;;
5026;SDS011;2532;52.480;13.354;2023-04-01T19:48:13;13.20;;;8.83;;
5026;SDS011;2532;52.480;13.354;2023-04-01T19:50:59;14.13;;;8.83;;
5026;SDS011;2532;52.480;13.354;2023-04-01T19:53:34;12.20;;;8.60;;
5026;SDS011;2532;52.480;13.354;2023-04-01T19:56:11;13.17;;;8.87;;
5026;SDS011;2532;52.480;13.354;2023-04-01T19:58:44;13.53;;;9.07;;
5026;SDS011;2532;52.480;13.354;2023-04-01T20:01:17;11.40;;;9.30;;
5026;SDS011;2532;52.480;13.354;2023-04-01T20:03:49;18.33;;;10.27;;
5026;SDS011;2532;52.480;13.354;2023-04-01T20:06:22;13.63;;;7.53;;
5026;SDS011;2532;52.480;13.354;2023-04-01T20:09:10;13.43;;;8.37;;
5026;SDS011;2532;52.480;13.354;2023-04-01T20:12:08;17.80;;;10.00;;
5026;SDS011;2532;52.480;13.354;2023-04-01T20:14:45;14.57;;;9.30;;
5026;SDS011;2532;52.480;13.354;2023-04-01T20:17:20;16.77;;;9.80;;
5026;SDS011;2532;52.480;13.354;2023-04-01T20:19:51;14.87;;;9.40;;
5026;SDS011;2532;52.480;13.354;2023-04-01T20:22:28;17.43;;;9.37;;
5026;SDS011;2532;52.480;13.354;2023-04-01T20:25:02;13.80;;;10.30;;
5026;SDS011;2532;52.480;13.354;2023-04-01T20:27:37;15.97;;;9.27;;
5026;SDS011;2532;52.480;13.354;2023-04-01T20:30:29;9.87;;;6.60;;
5026;SDS011;2532;52.480;13.354;2023-04-01T20:36:13;12.73;;;9.00;;
5026;SDS011;2532;52.480;13.354;2023-04-01T20:39:06;17.57;;;9.20;;
5026;SDS011;2532;52.480;13.354;2023-04-01T20:41:58;17.80;;;9.07;;
5026;SDS011;2532;52.480;13.354;2023-04-01T20:44:39;12.70;;;9.20;;
5026;SDS011;2532;52.480;13.354;2023-04-01T20:47:14;12.63;;;8.57;;
5026;SDS011;2532;52.480;13.354;2023-04-01T20:49:52;13.83;;;9.10;;
5026;SDS011;2532;52.480;13.354;2023-04-01T20:52:32;14.60;;;9.53;;
5026;SDS011;2532;52.480;13.354;2023-04-01T20:55:21;15.50;;;8.77;;
5026;SDS011;2532;52.480;13.354;2023-04-01T20:58:09;15.60;;;9.03;;
